sensor_id;sensor_type;location;lat;lon;timestamp;pressure;altitude;pressure_sealevel;temperature;humidity
62632;BME280;48703;51.248;-0.546;2022-12-04T00:01:56;101023;;;4.64;79.89
62632;BME280;48703;51.248;-0.546;2022-12-04T00:04:58;101024;;;4.64;79.88
62632;BME280;48703;51.248;-0.546;2022-12-04T00:08:00;101023;;;4.64;80.32
62632;BME280;48703;51.248;-0.546;2022-12-04T00:11:02;101020;;;4.64;79.53
62632;BME280;48703;51.248;-0.546;2022-12-04T00:14:04;101018;;;4.65;79.48
62632;BME280;48703;51.248;-0.546;2022-12-04T00:17:05;101018;;;4.66;79.78
62632;BME280;48703;51.248;-0.546;2022-12-04T00:20:08;101023;;;4.67;79.46
62632;BME280;48703;51.248;-0.546;2022-12-04T00:23:09;101024;;;4.67;79.52
62632;BME280;48703;51.248;-0.546;2022-12-04T00:26:12;101024;;;4.67;79.51
62632;BME280;48703;51.248;-0.546;2022-12-04T00:29:13;101025;;;4.68;79.63
62632;BME280;48703;51.248;-0.546;2022-12-04T00:32:15;101025;;;4.68;79.53
62632;BME280;48703;51.248;-0.546;2022-12-04T00:35:17;101023;;;4.69;79.24
62632;BME280;48703;51.248;-0.546;2022-12-04T00:38:19;101016;;;4.68;79.02
62632;BME280;48703;51.248;-0.546;2022-12-04T00:41:22;101013;;;4.69;78.76
62632;BME280;48703;51.248;-0.546;2022-12-04T00:44:22;101009;;;4.70;79.18
62632;BME280;48703;51.248;-0.546;2022-12-04T00:47:24;101006;;;4.69;78.94
62632;BME280;48703;51.248;-0.546;2022-12-04T00:50:26;101001;;;4.69;78.48
62632;BME280;48703;51.248;-0.546;2022-12-04T00:53:28;100996;;;4.68;78.03
62632;BME280;48703;51.248;-0.546;2022-12-04T00:56:30;100992;;;4.68;77.96
62632;BME280;48703;51.248;-0.546;2022-12-04T00:59:32;100992;;;4.67;77.60
62632;BME280;48703;51.248;-0.546;2022-12-04T01:02:34;100991;;;4.67;78.12
62632;BME280;48703;51.248;-0.546;2022-12-04T01:05:37;100990;;;4.68;78.12
62632;BME280;48703;51.248;-0.546;2022-12-04T01:08:37;100991;;;4.67;77.56
62632;BME280;48703;51.248;-0.546;2022-12-04T01:11:39;100991;;;4.67;77.95
62632;BME280;48703;51.248;-0.546;2022-12-04T01:14:41;100990;;;4.67;77.68
62632;BME280;48703;51.248;-0.546;2022-12-04T01:17:43;100988;;;4.66;77.75
62632;BME280;48703;51.248;-0.546;2022-12-04T01:20:46;100986;;;4.66;77.79
62632;BME280;48703;51.248;-0.546;2022-12-04T01:23:47;100987;;;4.65;77.27
62632;BME280;48703;51.248;-0.546;2022-12-04T01:26:49;100981;;;4.65;76.97
62632;BME280;48703;51.248;-0.546;2022-12-04T01:29:51;100978;;;4.64;76.86
62632;BME280;48703;51.248;-0.546;2022-12-04T01:32:52;100976;;;4.63;76.61
62632;BME280;48703;51.248;-0.546;2022-12-04T01:35:55;100975;;;4.63;76.71
62632;BME280;48703;51.248;-0.546;2022-12-04T01:38:56;100971;;;4.63;77.45
62632;BME280;48703;51.248;-0.546;2022-12-04T01:41:58;100970;;;4.64;77.34
62632;BME280;48703;51.248;-0.546;2022-12-04T01:45:36;100965;;;4.64;77.48
62632;BME280;48703;51.248;-0.546;2022-12-04T01:48:05;100962;;;4.62;77.69
62632;BME280;48703;51.248;-0.546;2022-12-04T01:51:05;100958;;;4.62;77.31
62632;BME280;48703;51.248;-0.546;2022-12-04T01:54:06;100951;;;4.61;77.00
62632;BME280;48703;51.248;-0.546;2022-12-04T01:57:08;100948;;;4.61;76.89
62632;BME280;48703;51.248;-0.546;2022-12-04T02:00:10;100947;;;4.61;77.28
62632;BME280;48703;51.248;-0.546;2022-12-04T02:03:11;100948;;;4.61;77.51
62632;BME280;48703;51.248;-0.546;2022-12-04T02:06:13;100951;;;4.61;77.64
62632;BME280;48703;51.248;-0.546;2022-12-04T02:09:15;100951;;;4.60;78.04
62632;BME280;48703;51.248;-0.546;2022-12-04T02:12:18;100952;;;4.58;77.78
62632;BME280;48703;51.248;-0.546;2022-12-04T02:15:20;100947;;;4.57;77.32
62632;BME280;48703;51.248;-0.546;2022-12-04T02:18:22;100942;;;4.58;77.73
62632;BME280;48703;51.248;-0.546;2022-12-04T02:21:24;100941;;;4.58;77.57
62632;BME280;48703;51.248;-0.546;2022-12-04T02:24:35;100942;;;4.57;77.22
62632;BME280;48703;51.248;-0.546;2022-12-04T02:27:30;100943;;;4.55;77.13
62632;BME280;48703;51.248;-0.546;2022-12-04T02:30:29;100944;;;4.55;76.59
62632;BME280;48703;51.248;-0.546;2022-12-04T02:33:33;100945;;;4.56;77.13
62632;BME280;48703;51.248;-0.546;2022-12-04T02:36:33;100946;;;4.56;77.46
62632;BME280;48703;51.248;-0.546;2022-12-04T02:39:35;100946;;;4.56;76.71
62632;BME280;48703;51.248;-0.546;2022-12-04T02:42:38;100947;;;4.57;76.99
62632;BME280;48703;51.248;-0.546;2022-12-04T02:45:39;100948;;;4.57;77.13
62632;BME280;48703;51.248;-0.546;2022-12-04T02:48:40;100950;;;4.57;76.73
62632;BME280;48703;51.248;-0.546;2022-12-04T02:51:42;100950;;;4.57;76.91
62632;BME280;48703;51.248;-0.546;2022-12-04T02:54:45;100946;;;4.56;76.82
62632;BME280;48703;51.248;-0.546;2022-12-04T02:57:47;100947;;;4.55;76.86
62632;BME280;48703;51.248;-0.546;2022-12-04T03:00:47;100946;;;4.56;77.34
62632;BME280;48703;51.248;-0.546;2022-12-04T03:03:50;100946;;;4.56;77.65
62632;BME280;48703;51.248;-0.546;2022-12-04T03:06:52;100946;;;4.54;77.81
62632;BME280;48703;51.248;-0.546;2022-12-04T03:09:53;100946;;;4.54;77.86
62632;BME280;48703;51.248;-0.546;2022-12-04T03:12:56;100942;;;4.55;78.17
62632;BME280;48703;51.248;-0.546;2022-12-04T03:15:57;100943;;;4.55;78.43
62632;BME280;48703;51.248;-0.546;2022-12-04T03:19:00;100942;;;4.55;77.85
62632;BME280;48703;51.248;-0.546;2022-12-04T03:22:01;100942;;;4.55;78.14
62632;BME280;48703;51.248;-0.546;2022-12-04T03:25:03;100938;;;4.55;78.10
62632;BME280;48703;51.248;-0.546;2022-12-04T03:28:06;100936;;;4.53;77.95
62632;BME280;48703;51.248;-0.546;2022-12-04T03:31:06;100932;;;4.54;78.24
62632;BME280;48703;51.248;-0.546;2022-12-04T03:34:08;100929;;;4.54;78.26
62632;BME280;48703;51.248;-0.546;2022-12-04T03:37:11;100929;;;4.53;78.43
62632;BME280;48703;51.248;-0.546;2022-12-04T03:40:14;100927;;;4.53;78.62
62632;BME280;48703;51.248;-0.546;2022-12-04T03:43:15;100930;;;4.51;78.40
62632;BME280;48703;51.248;-0.546;2022-12-04T03:46:16;100930;;;4.53;78.84
62632;BME280;48703;51.248;-0.546;2022-12-04T03:49:18;100928;;;4.52;79.17
62632;BME280;48703;51.248;-0.546;2022-12-04T03:52:20;100927;;;4.53;78.90
62632;BME280;48703;51.248;-0.546;2022-12-04T03:55:22;100928;;;4.52;78.91
62632;BME280;48703;51.248;-0.546;2022-12-04T03:58:24;100929;;;4.51;79.21
62632;BME280;48703;51.248;-0.546;2022-12-04T04:01:26;100931;;;4.50;79.00
62632;BME280;48703;51.248;-0.546;2022-12-04T04:04:28;100932;;;4.49;78.95
62632;BME280;48703;51.248;-0.546;2022-12-04T04:07:29;100935;;;4.49;79.33
62632;BME280;48703;51.248;-0.546;2022-12-04T04:10:30;100935;;;4.49;79.27
62632;BME280;48703;51.248;-0.546;2022-12-04T04:13:37;100935;;;4.48;79.34
62632;BME280;48703;51.248;-0.546;2022-12-04T04:16:37;100932;;;4.47;79.47
62632;BME280;48703;51.248;-0.546;2022-12-04T04:19:38;100931;;;4.48;79.86
62632;BME280;48703;51.248;-0.546;2022-12-04T04:22:38;100930;;;4.47;79.92
62632;BME280;48703;51.248;-0.546;2022-12-04T04:25:41;100931;;;4.47;80.24
62632;BME280;48703;51.248;-0.546;2022-12-04T04:28:42;100933;;;4.49;80.04
62632;BME280;48703;51.248;-0.546;2022-12-04T04:31:45;100938;;;4.48;80.05
62632;BME280;48703;51.248;-0.546;2022-12-04T04:34:49;100938;;;4.46;80.19
62632;BME280;48703;51.248;-0.546;2022-12-04T04:37:53;100935;;;4.46;80.39
62632;BME280;48703;51.248;-0.546;2022-12-04T04:40:51;100931;;;4.46;80.61
62632;BME280;48703;51.248;-0.546;2022-12-04T04:43:53;100929;;;4.45;80.81
62632;BME280;48703;51.248;-0.546;2022-12-04T04:46:55;100929;;;4.45;80.86
62632;BME280;48703;51.248;-0.546;2022-12-04T04:49:55;100931;;;4.45;80.82
62632;BME280;48703;51.248;-0.546;2022-12-04T04:52:57;100932;;;4.43;81.07
62632;BME280;48703;51.248;-0.546;2022-12-04T04:55:59;100933;;;4.43;81.30
62632;BME280;48703;51.248;-0.546;2022-12-04T04:59:01;100931;;;4.44;81.51
62632;BME280;48703;51.248;-0.546;2022-12-04T05:02:03;100931;;;4.43;81.86
62632;BME280;48703;51.248;-0.546;2022-12-04T05:05:05;100931;;;4.42;81.97
62632;BME280;48703;51.248;-0.546;2022-12-04T05:08:06;100931;;;4.41;82.24
62632;BME280;48703;51.248;-0.546;2022-12-04T05:11:09;100929;;;4.40;82.37
62632;BME280;48703;51.248;-0.546;2022-12-04T05:14:10;100931;;;4.39;82.72
62632;BME280;48703;51.248;-0.546;2022-12-04T05:17:12;100933;;;4.38;83.55
62632;BME280;48703;51.248;-0.546;2022-12-04T05:20:14;100935;;;4.37;83.85
62632;BME280;48703;51.248;-0.546;2022-12-04T05:23:16;100936;;;4.35;84.12
62632;BME280;48703;51.248;-0.546;2022-12-04T05:26:18;100939;;;4.35;84.25
62632;BME280;48703;51.248;-0.546;2022-12-04T05:29:19;100941;;;4.33;84.96
62632;BME280;48703;51.248;-0.546;2022-12-04T05:32:22;100941;;;4.30;85.07
62632;BME280;48703;51.248;-0.546;2022-12-04T05:35:23;100942;;;4.30;85.20
62632;BME280;48703;51.248;-0.546;2022-12-04T05:38:25;100945;;;4.29;85.88
62632;BME280;48703;51.248;-0.546;2022-12-04T05:41:27;100947;;;4.29;85.82
62632;BME280;48703;51.248;-0.546;2022-12-04T05:44:29;100953;;;4.29;85.71
62632;BME280;48703;51.248;-0.546;2022-12-04T05:47:31;100951;;;4.29;85.55
62632;BME280;48703;51.248;-0.546;2022-12-04T05:50:33;100951;;;4.28;85.98
62632;BME280;48703;51.248;-0.546;2022-12-04T05:53:35;100952;;;4.28;86.53
62632;BME280;48703;51.248;-0.546;2022-12-04T05:56:36;100951;;;4.28;86.24
62632;BME280;48703;51.248;-0.546;2022-12-04T05:59:38;100951;;;4.27;86.48
62632;BME280;48703;51.248;-0.546;2022-12-04T06:02:40;100950;;;4.26;86.48
62632;BME280;48703;51.248;-0.546;2022-12-04T06:05:42;100946;;;4.26;87.06
62632;BME280;48703;51.248;-0.546;2022-12-04T06:08:44;100945;;;4.27;86.82
62632;BME280;48703;51.248;-0.546;2022-12-04T06:11:46;100945;;;4.27;87.02
62632;BME280;48703;51.248;-0.546;2022-12-04T06:14:48;100942;;;4.26;87.46
62632;BME280;48703;51.248;-0.546;2022-12-04T06:17:50;100936;;;4.26;87.63
62632;BME280;48703;51.248;-0.546;2022-12-04T06:20:51;100935;;;4.24;87.54
62632;BME280;48703;51.248;-0.546;2022-12-04T06:23:54;100934;;;4.25;87.95
62632;BME280;48703;51.248;-0.546;2022-12-04T06:26:56;100935;;;4.24;88.15
62632;BME280;48703;51.248;-0.546;2022-12-04T06:29:57;100933;;;4.25;87.97
62632;BME280;48703;51.248;-0.546;2022-12-04T06:32:59;100936;;;4.25;88.20
62632;BME280;48703;51.248;-0.546;2022-12-04T06:36:02;100939;;;4.25;88.23
62632;BME280;48703;51.248;-0.546;2022-12-04T06:39:03;100941;;;4.23;88.18
62632;BME280;48703;51.248;-0.546;2022-12-04T06:42:05;100943;;;4.24;88.38
62632;BME280;48703;51.248;-0.546;2022-12-04T06:45:07;100944;;;4.21;88.52
62632;BME280;48703;51.248;-0.546;2022-12-04T06:48:08;100941;;;4.23;88.34
62632;BME280;48703;51.248;-0.546;2022-12-04T06:51:11;100941;;;4.24;88.52
62632;BME280;48703;51.248;-0.546;2022-12-04T06:54:12;100943;;;4.23;88.41
62632;BME280;48703;51.248;-0.546;2022-12-04T06:57:14;100942;;;4.23;88.53
62632;BME280;48703;51.248;-0.546;2022-12-04T07:00:16;100943;;;4.23;88.97
62632;BME280;48703;51.248;-0.546;2022-12-04T07:03:18;100943;;;4.24;88.82
62632;BME280;48703;51.248;-0.546;2022-12-04T07:06:21;100944;;;4.22;89.04
62632;BME280;48703;51.248;-0.546;2022-12-04T07:09:21;100946;;;4.21;88.94
62632;BME280;48703;51.248;-0.546;2022-12-04T07:12:23;100949;;;4.20;88.74
62632;BME280;48703;51.248;-0.546;2022-12-04T07:15:25;100953;;;4.22;88.64
62632;BME280;48703;51.248;-0.546;2022-12-04T07:18:27;100955;;;4.20;89.20
62632;BME280;48703;51.248;-0.546;2022-12-04T07:21:29;100957;;;4.20;88.98
62632;BME280;48703;51.248;-0.546;2022-12-04T07:24:31;100962;;;4.20;88.99
62632;BME280;48703;51.248;-0.546;2022-12-04T07:27:33;100963;;;4.20;89.01
62632;BME280;48703;51.248;-0.546;2022-12-04T07:30:36;100964;;;4.20;88.90
62632;BME280;48703;51.248;-0.546;2022-12-04T07:33:37;100964;;;4.21;88.83
62632;BME280;48703;51.248;-0.546;2022-12-04T07:36:39;100965;;;4.20;88.86
62632;BME280;48703;51.248;-0.546;2022-12-04T07:39:40;100971;;;4.22;89.21
62632;BME280;48703;51.248;-0.546;2022-12-04T07:42:42;100973;;;4.23;89.38
62632;BME280;48703;51.248;-0.546;2022-12-04T07:45:44;100972;;;4.23;88.92
62632;BME280;48703;51.248;-0.546;2022-12-04T07:48:46;100978;;;4.24;89.11
62632;BME280;48703;51.248;-0.546;2022-12-04T07:51:48;100978;;;4.24;89.13
62632;BME280;48703;51.248;-0.546;2022-12-04T07:54:50;100978;;;4.26;88.82
62632;BME280;48703;51.248;-0.546;2022-12-04T07:57:52;100977;;;4.27;88.71
62632;BME280;48703;51.248;-0.546;2022-12-04T08:00:53;100982;;;4.27;88.54
62632;BME280;48703;51.248;-0.546;2022-12-04T08:03:56;100988;;;4.28;88.74
62632;BME280;48703;51.248;-0.546;2022-12-04T08:06:57;100991;;;4.29;88.56
62632;BME280;48703;51.248;-0.546;2022-12-04T08:09:59;100996;;;4.27;88.20
62632;BME280;48703;51.248;-0.546;2022-12-04T08:13:01;101003;;;4.26;87.91
62632;BME280;48703;51.248;-0.546;2022-12-04T08:16:03;101005;;;4.24;86.67
62632;BME280;48703;51.248;-0.546;2022-12-04T08:19:05;101007;;;4.24;86.57
62632;BME280;48703;51.248;-0.546;2022-12-04T08:22:07;101006;;;4.24;86.62
62632;BME280;48703;51.248;-0.546;2022-12-04T08:25:09;101007;;;4.23;86.75
62632;BME280;48703;51.248;-0.546;2022-12-04T08:28:10;101010;;;4.22;86.54
62632;BME280;48703;51.248;-0.546;2022-12-04T08:31:13;101015;;;4.22;86.17
62632;BME280;48703;51.248;-0.546;2022-12-04T08:34:14;101018;;;4.21;86.56
62632;BME280;48703;51.248;-0.546;2022-12-04T08:37:16;101022;;;4.21;86.58
62632;BME280;48703;51.248;-0.546;2022-12-04T08:40:18;101026;;;4.22;86.30
62632;BME280;48703;51.248;-0.546;2022-12-04T08:43:20;101028;;;4.22;85.79
62632;BME280;48703;51.248;-0.546;2022-12-04T08:46:22;101029;;;4.19;85.39
62632;BME280;48703;51.248;-0.546;2022-12-04T08:49:24;101030;;;4.18;85.12
62632;BME280;48703;51.248;-0.546;2022-12-04T08:52:26;101025;;;4.18;84.73
62632;BME280;48703;51.248;-0.546;2022-12-04T08:55:27;101022;;;4.19;84.62
62632;BME280;48703;51.248;-0.546;2022-12-04T08:58:29;101020;;;4.19;84.76
62632;BME280;48703;51.248;-0.546;2022-12-04T09:01:31;101021;;;4.19;84.05
62632;BME280;48703;51.248;-0.546;2022-12-04T09:04:33;101019;;;4.18;84.28
62632;BME280;48703;51.248;-0.546;2022-12-04T09:07:35;101024;;;4.18;84.36
62632;BME280;48703;51.248;-0.546;2022-12-04T09:10:37;101027;;;4.20;84.64
62632;BME280;48703;51.248;-0.546;2022-12-04T09:13:39;101024;;;4.19;84.32
62632;BME280;48703;51.248;-0.546;2022-12-04T09:16:41;101025;;;4.20;84.54
62632;BME280;48703;51.248;-0.546;2022-12-04T09:19:43;101027;;;4.21;84.21
62632;BME280;48703;51.248;-0.546;2022-12-04T09:22:44;101022;;;4.21;84.37
62632;BME280;48703;51.248;-0.546;2022-12-04T09:25:46;101024;;;4.21;84.29
62632;BME280;48703;51.248;-0.546;2022-12-04T09:28:49;101024;;;4.22;84.78
62632;BME280;48703;51.248;-0.546;2022-12-04T09:31:50;101029;;;4.22;83.95
62632;BME280;48703;51.248;-0.546;2022-12-04T09:34:52;101033;;;4.22;83.83
62632;BME280;48703;51.248;-0.546;2022-12-04T09:37:54;101037;;;4.24;84.32
62632;BME280;48703;51.248;-0.546;2022-12-04T09:40:57;101039;;;4.24;84.75
62632;BME280;48703;51.248;-0.546;2022-12-04T09:43:59;101040;;;4.26;84.45
62632;BME280;48703;51.248;-0.546;2022-12-04T09:47:00;101041;;;4.27;84.68
62632;BME280;48703;51.248;-0.546;2022-12-04T09:50:02;101044;;;4.28;84.48
62632;BME280;48703;51.248;-0.546;2022-12-04T09:53:05;101046;;;4.29;84.45
62632;BME280;48703;51.248;-0.546;2022-12-04T09:56:05;101046;;;4.29;84.50
62632;BME280;48703;51.248;-0.546;2022-12-04T09:59:09;101047;;;4.28;84.28
62632;BME280;48703;51.248;-0.546;2022-12-04T10:02:17;101048;;;4.28;84.60
62632;BME280;48703;51.248;-0.546;2022-12-04T10:05:15;101043;;;4.29;84.29
62632;BME280;48703;51.248;-0.546;2022-12-04T10:08:15;101048;;;4.29;84.31
62632;BME280;48703;51.248;-0.546;2022-12-04T10:11:16;101049;;;4.29;84.04
62632;BME280;48703;51.248;-0.546;2022-12-04T10:14:19;101047;;;4.30;84.39
62632;BME280;48703;51.248;-0.546;2022-12-04T10:17:21;101044;;;4.32;84.45
62632;BME280;48703;51.248;-0.546;2022-12-04T10:19:27;101042;;;4.33;84.74
62632;BME280;48703;51.248;-0.546;2022-12-04T10:22:26;101044;;;4.36;84.63
62632;BME280;48703;51.248;-0.546;2022-12-04T10:25:25;101042;;;4.36;84.96
62632;BME280;48703;51.248;-0.546;2022-12-04T10:28:28;101043;;;4.36;84.91
62632;BME280;48703;51.248;-0.546;2022-12-04T10:31:27;101040;;;4.35;84.85
62632;BME280;48703;51.248;-0.546;2022-12-04T10:34:29;101041;;;4.35;84.77
62632;BME280;48703;51.248;-0.546;2022-12-04T10:37:31;101042;;;4.37;84.79
62632;BME280;48703;51.248;-0.546;2022-12-04T10:40:34;101040;;;4.39;84.34
62632;BME280;48703;51.248;-0.546;2022-12-04T10:43:37;101042;;;4.40;84.69
62632;BME280;48703;51.248;-0.546;2022-12-04T10:46:37;101041;;;4.41;84.99
62632;BME280;48703;51.248;-0.546;2022-12-04T10:49:38;101038;;;4.41;84.40
62632;BME280;48703;51.248;-0.546;2022-12-04T10:52:40;101039;;;4.43;85.17
62632;BME280;48703;51.248;-0.546;2022-12-04T10:55:42;101041;;;4.44;85.22
62632;BME280;48703;51.248;-0.546;2022-12-04T10:58:53;101040;;;4.46;85.28
62632;BME280;48703;51.248;-0.546;2022-12-04T11:01:46;101041;;;4.48;85.12
62632;BME280;48703;51.248;-0.546;2022-12-04T11:04:53;101041;;;4.48;85.18
62632;BME280;48703;51.248;-0.546;2022-12-04T11:07:50;101039;;;4.49;85.30
62632;BME280;48703;51.248;-0.546;2022-12-04T11:10:55;101042;;;4.51;85.51
62632;BME280;48703;51.248;-0.546;2022-12-04T11:13:59;101043;;;4.52;85.30
62632;BME280;48703;51.248;-0.546;2022-12-04T11:16:59;101045;;;4.51;85.10
62632;BME280;48703;51.248;-0.546;2022-12-04T11:19:58;101046;;;4.53;85.54
62632;BME280;48703;51.248;-0.546;2022-12-04T11:22:59;101051;;;4.55;85.32
62632;BME280;48703;51.248;-0.546;2022-12-04T11:26:01;101051;;;4.56;84.54
62632;BME280;48703;51.248;-0.546;2022-12-04T11:29:03;101052;;;4.57;84.60
62632;BME280;48703;51.248;-0.546;2022-12-04T11:32:05;101048;;;4.59;84.69
62632;BME280;48703;51.248;-0.546;2022-12-04T11:35:12;101047;;;4.60;85.00
62632;BME280;48703;51.248;-0.546;2022-12-04T11:38:12;101051;;;4.60;84.71
62632;BME280;48703;51.248;-0.546;2022-12-04T11:41:21;101051;;;4.60;84.22
62632;BME280;48703;51.248;-0.546;2022-12-04T11:44:19;101052;;;4.60;84.69
62632;BME280;48703;51.248;-0.546;2022-12-04T11:47:15;101051;;;4.61;84.90
62632;BME280;48703;51.248;-0.546;2022-12-04T11:50:17;101050;;;4.60;85.20
62632;BME280;48703;51.248;-0.546;2022-12-04T11:53:20;101050;;;4.60;85.02
62632;BME280;48703;51.248;-0.546;2022-12-04T11:56:22;101045;;;4.60;84.65
62632;BME280;48703;51.248;-0.546;2022-12-04T11:59:25;101037;;;4.60;85.42
62632;BME280;48703;51.248;-0.546;2022-12-04T12:02:29;101030;;;4.62;85.10
62632;BME280;48703;51.248;-0.546;2022-12-04T12:05:32;101028;;;4.65;85.48
62632;BME280;48703;51.248;-0.546;2022-12-04T12:08:31;101029;;;4.67;85.49
62632;BME280;48703;51.248;-0.546;2022-12-04T12:11:31;101029;;;4.71;85.17
62632;BME280;48703;51.248;-0.546;2022-12-04T12:14:33;101024;;;4.72;84.78
62632;BME280;48703;51.248;-0.546;2022-12-04T12:17:36;101021;;;4.76;85.12
62632;BME280;48703;51.248;-0.546;2022-12-04T12:20:35;101019;;;4.79;85.10
62632;BME280;48703;51.248;-0.546;2022-12-04T12:23:44;101020;;;4.81;85.06
62632;BME280;48703;51.248;-0.546;2022-12-04T12:26:41;101018;;;4.83;84.79
62632;BME280;48703;51.248;-0.546;2022-12-04T12:29:43;101016;;;4.85;84.80
62632;BME280;48703;51.248;-0.546;2022-12-04T12:32:47;101008;;;4.86;84.55
62632;BME280;48703;51.248;-0.546;2022-12-04T12:35:46;101004;;;4.88;84.72
62632;BME280;48703;51.248;-0.546;2022-12-04T12:38:47;101000;;;4.91;84.86
62632;BME280;48703;51.248;-0.546;2022-12-04T12:41:49;101000;;;4.94;84.83
62632;BME280;48703;51.248;-0.546;2022-12-04T12:44:52;101001;;;4.94;84.85
62632;BME280;48703;51.248;-0.546;2022-12-04T12:47:53;101000;;;4.95;84.18
62632;BME280;48703;51.248;-0.546;2022-12-04T12:50:55;101000;;;4.96;84.50
62632;BME280;48703;51.248;-0.546;2022-12-04T12:53:57;100999;;;4.97;84.31
62632;BME280;48703;51.248;-0.546;2022-12-04T12:57:00;100999;;;4.98;84.73
62632;BME280;48703;51.248;-0.546;2022-12-04T13:00:02;100999;;;4.99;84.94
62632;BME280;48703;51.248;-0.546;2022-12-04T13:03:02;101000;;;5.01;85.01
62632;BME280;48703;51.248;-0.546;2022-12-04T13:06:05;101001;;;5.01;84.62
62632;BME280;48703;51.248;-0.546;2022-12-04T13:09:08;101000;;;5.01;84.27
62632;BME280;48703;51.248;-0.546;2022-12-04T13:12:07;100994;;;5.02;84.66
62632;BME280;48703;51.248;-0.546;2022-12-04T13:15:12;100991;;;5.03;84.97
62632;BME280;48703;51.248;-0.546;2022-12-04T13:18:13;100988;;;5.04;85.16
62632;BME280;48703;51.248;-0.546;2022-12-04T13:21:18;100988;;;5.03;84.83
62632;BME280;48703;51.248;-0.546;2022-12-04T13:24:22;100986;;;5.04;84.63
62632;BME280;48703;51.248;-0.546;2022-12-04T13:27:19;100984;;;5.04;84.20
62632;BME280;48703;51.248;-0.546;2022-12-04T13:30:19;100984;;;5.06;84.52
62632;BME280;48703;51.248;-0.546;2022-12-04T13:33:32;100988;;;5.06;84.54
62632;BME280;48703;51.248;-0.546;2022-12-04T13:36:25;100991;;;5.06;83.94
62632;BME280;48703;51.248;-0.546;2022-12-04T13:39:32;100990;;;5.06;84.58
62632;BME280;48703;51.248;-0.546;2022-12-04T13:42:26;100987;;;5.06;84.91
62632;BME280;48703;51.248;-0.546;2022-12-04T13:45:30;100990;;;5.07;84.43
62632;BME280;48703;51.248;-0.546;2022-12-04T13:48:32;100991;;;5.08;84.55
62632;BME280;48703;51.248;-0.546;2022-12-04T13:51:33;100993;;;5.09;84.87
62632;BME280;48703;51.248;-0.546;2022-12-04T13:54:34;100992;;;5.10;84.81
62632;BME280;48703;51.248;-0.546;2022-12-04T13:57:35;100991;;;5.10;84.32
62632;BME280;48703;51.248;-0.546;2022-12-04T14:00:38;100987;;;5.09;84.17
62632;BME280;48703;51.248;-0.546;2022-12-04T14:03:44;100988;;;5.09;84.12
62632;BME280;48703;51.248;-0.546;2022-12-04T14:06:41;100989;;;5.09;84.16
62632;BME280;48703;51.248;-0.546;2022-12-04T14:09:47;100986;;;5.10;84.25
62632;BME280;48703;51.248;-0.546;2022-12-04T14:12:48;100986;;;5.09;84.27
62632;BME280;48703;51.248;-0.546;2022-12-04T14:15:47;100987;;;5.07;83.77
62632;BME280;48703;51.248;-0.546;2022-12-04T14:18:50;100985;;;5.07;84.34
62632;BME280;48703;51.248;-0.546;2022-12-04T14:21:50;100982;;;5.08;84.45
62632;BME280;48703;51.248;-0.546;2022-12-04T14:24:52;100977;;;5.08;84.07
62632;BME280;48703;51.248;-0.546;2022-12-04T14:27:54;100974;;;5.09;84.23
62632;BME280;48703;51.248;-0.546;2022-12-04T14:30:59;100976;;;5.09;84.80
62632;BME280;48703;51.248;-0.546;2022-12-04T14:33:58;100977;;;5.09;84.34
62632;BME280;48703;51.248;-0.546;2022-12-04T14:37:00;100978;;;5.06;84.10
62632;BME280;48703;51.248;-0.546;2022-12-04T14:40:02;100980;;;5.08;84.52
62632;BME280;48703;51.248;-0.546;2022-12-04T14:43:03;100982;;;5.09;84.36
62632;BME280;48703;51.248;-0.546;2022-12-04T14:46:06;100982;;;5.08;84.25
62632;BME280;48703;51.248;-0.546;2022-12-04T14:49:16;100984;;;5.07;84.24
62632;BME280;48703;51.248;-0.546;2022-12-04T14:52:12;100986;;;5.07;84.05
62632;BME280;48703;51.248;-0.546;2022-12-04T14:55:13;100990;;;5.08;83.93
62632;BME280;48703;51.248;-0.546;2022-12-04T14:58:13;100989;;;5.07;83.46
62632;BME280;48703;51.248;-0.546;2022-12-04T15:01:18;100994;;;5.08;83.83
62632;BME280;48703;51.248;-0.546;2022-12-04T15:04:20;100997;;;5.08;83.53
62632;BME280;48703;51.248;-0.546;2022-12-04T15:07:19;101002;;;5.08;83.26
62632;BME280;48703;51.248;-0.546;2022-12-04T15:10:21;101006;;;5.09;83.51
62632;BME280;48703;51.248;-0.546;2022-12-04T15:13:24;101009;;;5.10;82.99
62632;BME280;48703;51.248;-0.546;2022-12-04T15:16:24;101009;;;5.09;83.07
62632;BME280;48703;51.248;-0.546;2022-12-04T15:19:26;101012;;;5.09;83.32
62632;BME280;48703;51.248;-0.546;2022-12-04T15:22:28;101018;;;5.07;83.22
62632;BME280;48703;51.248;-0.546;2022-12-04T15:25:31;101022;;;5.07;83.32
62632;BME280;48703;51.248;-0.546;2022-12-04T15:28:32;101021;;;5.07;83.29
62632;BME280;48703;51.248;-0.546;2022-12-04T15:31:35;101018;;;5.07;83.27
62632;BME280;48703;51.248;-0.546;2022-12-04T15:34:36;101021;;;5.07;83.33
62632;BME280;48703;51.248;-0.546;2022-12-04T15:37:37;101025;;;5.08;83.46
62632;BME280;48703;51.248;-0.546;2022-12-04T15:40:48;101029;;;5.07;83.18
62632;BME280;48703;51.248;-0.546;2022-12-04T15:43:41;101035;;;5.08;83.54
62632;BME280;48703;51.248;-0.546;2022-12-04T15:46:43;101040;;;5.07;83.62
62632;BME280;48703;51.248;-0.546;2022-12-04T15:49:45;101044;;;5.07;83.66
62632;BME280;48703;51.248;-0.546;2022-12-04T15:52:47;101050;;;5.07;83.42
62632;BME280;48703;51.248;-0.546;2022-12-04T15:55:50;101054;;;5.07;83.70
62632;BME280;48703;51.248;-0.546;2022-12-04T15:58:52;101057;;;5.07;83.33
62632;BME280;48703;51.248;-0.546;2022-12-04T16:01:52;101055;;;5.06;83.63
62632;BME280;48703;51.248;-0.546;2022-12-04T16:04:54;101060;;;5.06;83.33
62632;BME280;48703;51.248;-0.546;2022-12-04T16:07:57;101062;;;5.05;83.19
62632;BME280;48703;51.248;-0.546;2022-12-04T16:10:59;101065;;;5.03;82.59
62632;BME280;48703;51.248;-0.546;2022-12-04T16:14:01;101067;;;5.04;82.78
62632;BME280;48703;51.248;-0.546;2022-12-04T16:17:02;101073;;;5.04;82.96
62632;BME280;48703;51.248;-0.546;2022-12-04T16:20:04;101072;;;5.04;82.99
62632;BME280;48703;51.248;-0.546;2022-12-04T16:23:05;101073;;;5.04;83.25
62632;BME280;48703;51.248;-0.546;2022-12-04T16:26:09;101074;;;5.05;83.17
62632;BME280;48703;51.248;-0.546;2022-12-04T16:29:09;101076;;;5.04;82.94